createdAt,value
2018-03-22T00:00:01.648Z,1020.90
2018-03-22T00:01:01.754Z,1020.87
2018-03-22T00:02:01.776Z,1020.89
2018-03-22T00:03:01.860Z,1020.84
2018-03-22T00:04:01.892Z,1020.84
2018-03-22T00:05:01.944Z,1020.80
2018-03-22T00:06:02.004Z,1020.81
2018-03-22T00:07:02.064Z,1020.74
2018-03-22T00:08:02.300Z,1020.79
2018-03-22T00:09:02.188Z,1020.75
2018-03-22T00:10:02.248Z,1020.72
2018-03-22T00:11:02.316Z,1020.69
2018-03-22T00:12:02.397Z,1020.70
2018-03-22T00:13:02.424Z,1020.68
2018-03-22T00:14:02.516Z,1020.68
2018-03-22T00:15:02.556Z,1020.71
2018-03-22T00:16:02.625Z,1020.74
2018-03-22T00:17:02.677Z,1020.75
2018-03-22T00:18:02.729Z,1020.79
2018-03-22T00:19:02.821Z,1020.76
2018-03-22T00:20:02.841Z,1020.75
2018-03-22T00:21:02.900Z,1020.75
2018-03-22T00:22:02.957Z,1020.73
2018-03-22T00:23:03.042Z,1020.69
2018-03-22T00:24:03.085Z,1020.65
2018-03-22T00:25:03.145Z,1020.62
2018-03-22T00:26:03.252Z,1020.68
2018-03-22T00:27:03.257Z,1020.65
2018-03-22T00:28:03.333Z,1020.62
2018-03-22T00:29:03.405Z,1020.58
2018-03-22T00:30:03.453Z,1020.59
2018-03-22T00:31:03.501Z,1020.53
2018-03-22T00:32:03.557Z,1020.52
2018-03-22T00:33:03.625Z,1020.47
2018-03-22T00:34:03.681Z,1020.44
2018-03-22T00:35:03.734Z,1020.39
2018-03-22T00:36:03.799Z,1020.46
2018-03-22T00:37:03.865Z,1020.38
2018-03-22T00:38:03.922Z,1020.37
2018-03-22T00:39:04.017Z,1020.35
2018-03-22T00:40:04.045Z,1020.33
2018-03-22T00:41:04.093Z,1020.31
2018-03-22T00:42:04.161Z,1020.29
2018-03-22T00:43:04.214Z,1020.29
2018-03-22T00:44:04.302Z,1020.26
2018-03-22T00:45:04.342Z,1020.24
2018-03-22T00:46:04.390Z,1020.25
2018-03-22T00:47:04.457Z,1020.21
2018-03-22T00:48:04.516Z,1020.23
2018-03-22T00:49:04.578Z,1020.19
2018-03-22T00:50:04.641Z,1020.13
2018-03-22T00:51:04.712Z,1020.17
2018-03-22T00:52:04.746Z,1020.11
2018-03-22T00:53:04.818Z,1020.10
2018-03-22T00:54:04.874Z,1020.08
2018-03-22T00:55:04.938Z,1019.98
2018-03-22T00:56:04.999Z,1019.97
2018-03-22T00:57:05.050Z,1019.95
2018-03-22T00:58:05.118Z,1019.96
2018-03-22T00:59:05.294Z,1019.98
2018-03-22T01:00:05.230Z,1019.95
2018-03-22T01:01:05.286Z,1019.93
2018-03-22T01:02:05.346Z,1019.92
2018-03-22T01:03:05.406Z,1019.91
2018-03-22T01:04:05.470Z,1019.85
2018-03-22T01:05:05.530Z,1019.80
2018-03-22T01:06:05.582Z,1019.80
2018-03-22T01:07:05.643Z,1019.79
2018-03-22T01:08:05.703Z,1019.76
2018-03-22T01:09:05.799Z,1019.75
2018-03-22T01:10:05.835Z,1019.73
2018-03-22T01:11:05.883Z,1019.69
2018-03-22T01:12:05.942Z,1019.70
2018-03-22T01:13:06.007Z,1019.66
2018-03-22T01:14:06.083Z,1019.67
2018-03-22T01:15:06.136Z,1019.62
2018-03-22T01:16:06.186Z,1019.59
2018-03-22T01:17:06.246Z,1019.64
2018-03-22T01:18:06.299Z,1019.67
2018-03-22T01:19:06.372Z,1019.62
2018-03-22T01:20:06.427Z,1019.55
2018-03-22T01:21:06.479Z,1019.58
2018-03-22T01:22:06.539Z,1019.59
2018-03-22T01:23:06.603Z,1019.55
2018-03-22T01:24:06.673Z,1019.56
2018-03-22T01:25:06.731Z,1019.55
2018-03-22T01:26:06.779Z,1019.51
2018-03-22T01:27:06.839Z,1019.51
2018-03-22T01:28:06.900Z,1019.48
2018-03-22T01:29:06.963Z,1019.44
2018-03-22T01:30:07.024Z,1019.40
2018-03-22T01:31:07.079Z,1019.40
2018-03-22T01:32:07.139Z,1019.41
2018-03-22T01:33:07.200Z,1019.38
2018-03-22T01:34:07.423Z,1019.37
2018-03-22T01:35:07.320Z,1019.32
2018-03-22T01:36:07.377Z,1019.30
2018-03-22T01:37:07.435Z,1019.29
2018-03-22T01:38:07.500Z,1019.31
2018-03-22T01:39:07.564Z,1019.28
2018-03-22T01:40:07.628Z,1019.23
2018-03-22T01:41:07.683Z,1019.25
2018-03-22T01:42:07.736Z,1019.18
2018-03-22T01:43:07.796Z,1019.17
2018-03-22T01:44:07.864Z,1019.13
2018-03-22T01:45:07.920Z,1019.08
2018-03-22T01:46:07.972Z,1019.10
2018-03-22T01:47:08.034Z,1019.01
2018-03-22T01:48:08.096Z,1018.98
2018-03-22T01:49:08.261Z,1018.92
2018-03-22T01:50:08.220Z,1018.96
2018-03-22T01:51:08.273Z,1018.97
2018-03-22T01:52:08.346Z,1018.93
2018-03-22T01:53:08.393Z,1018.90
2018-03-22T01:54:08.460Z,1018.85
2018-03-22T01:55:08.524Z,1018.83
2018-03-22T01:56:08.580Z,1018.82
2018-03-22T01:57:08.636Z,1018.85
2018-03-22T01:58:08.704Z,1018.83
2018-03-22T01:59:08.756Z,1018.79
2018-03-22T02:00:08.816Z,1018.78
2018-03-22T02:01:08.877Z,1018.76
2018-03-22T02:02:08.933Z,1018.74
2018-03-22T02:03:08.993Z,1018.73
2018-03-22T02:04:09.057Z,1018.71
2018-03-22T02:05:09.116Z,1018.72
2018-03-22T02:06:09.169Z,1018.64
2018-03-22T02:07:09.233Z,1018.63
2018-03-22T02:08:09.293Z,1018.61
2018-03-22T02:09:09.366Z,1018.62
2018-03-22T02:10:09.478Z,1018.62
2018-03-22T02:11:09.473Z,1018.57
2018-03-22T02:12:09.534Z,1018.56
2018-03-22T02:13:09.590Z,1018.52
2018-03-22T02:14:09.658Z,1018.49
2018-03-22T02:15:09.718Z,1018.38
2018-03-22T02:16:09.772Z,1018.40
2018-03-22T02:17:09.834Z,1018.37
2018-03-22T02:18:09.886Z,1018.37
2018-03-22T02:19:09.959Z,1018.31
2018-03-22T02:20:10.013Z,1018.31
2018-03-22T02:21:10.067Z,1018.27
2018-03-22T02:22:10.126Z,1018.20
2018-03-22T02:23:10.186Z,1018.22
2018-03-22T02:24:10.394Z,1018.16
2018-03-22T02:25:10.302Z,1018.18
2018-03-22T02:26:10.366Z,1018.13
2018-03-22T02:27:10.425Z,1018.11
2018-03-22T02:28:10.489Z,1018.09
2018-03-22T02:29:10.550Z,1018.06
2018-03-22T02:30:10.612Z,1017.99
2018-03-22T02:31:10.662Z,1018.01
2018-03-22T02:32:10.723Z,1017.97
2018-03-22T02:33:10.786Z,1018.01
2018-03-22T02:34:10.854Z,1017.91
2018-03-22T02:35:10.914Z,1017.96
2018-03-22T02:36:10.963Z,1017.97
2018-03-22T02:37:11.018Z,1018.00
2018-03-22T02:38:11.079Z,1017.97
2018-03-22T02:39:11.166Z,1017.91
2018-03-22T02:40:11.199Z,1017.90
2018-03-22T02:41:11.262Z,1017.93
2018-03-22T02:42:11.318Z,1017.93
2018-03-22T02:43:11.391Z,1017.89
2018-03-22T02:44:11.448Z,1017.91
2018-03-22T02:45:11.511Z,1017.93
2018-03-22T02:46:11.567Z,1017.93
2018-03-22T02:47:11.622Z,1017.96
2018-03-22T02:48:11.685Z,1017.92
2018-03-22T02:49:11.746Z,1017.91
2018-03-22T02:50:11.803Z,1017.90
2018-03-22T02:51:11.899Z,1017.89
2018-03-22T02:52:11.915Z,1017.90
2018-03-22T02:53:11.996Z,1017.94
2018-03-22T02:54:12.048Z,1017.97
2018-03-22T02:55:12.108Z,1017.94
2018-03-22T02:56:12.155Z,1017.97
2018-03-22T02:57:12.211Z,1017.99
2018-03-22T02:58:12.277Z,1017.95
2018-03-22T02:59:12.364Z,1017.99
2018-03-22T03:00:12.395Z,1018.02
2018-03-22T03:01:12.453Z,1017.97
2018-03-22T03:02:12.516Z,1017.90
2018-03-22T03:03:12.576Z,1017.89
2018-03-22T03:04:12.640Z,1017.82
2018-03-22T03:05:12.704Z,1017.82
2018-03-22T03:06:12.751Z,1017.78
2018-03-22T03:07:12.814Z,1017.75
2018-03-22T03:08:12.872Z,1017.66
2018-03-22T03:09:12.936Z,1017.69
2018-03-22T03:10:12.995Z,1017.64
2018-03-22T03:11:13.048Z,1017.61
2018-03-22T03:12:13.120Z,1017.60
2018-03-22T03:13:13.172Z,1017.61
2018-03-22T03:14:13.228Z,1017.51
2018-03-22T03:15:13.540Z,1017.47
2018-03-22T03:16:13.348Z,1017.51
2018-03-22T03:17:13.412Z,1017.46
2018-03-22T03:18:13.464Z,1017.50
2018-03-22T03:19:13.524Z,1017.48
2018-03-22T03:20:13.592Z,1017.48
2018-03-22T03:21:13.651Z,1017.44
2018-03-22T03:22:13.714Z,1017.42
2018-03-22T03:23:13.764Z,1017.43
2018-03-22T03:24:13.824Z,1017.47
2018-03-22T03:25:13.888Z,1017.54
2018-03-22T03:26:13.948Z,1017.41
2018-03-22T03:27:14.000Z,1017.45
2018-03-22T03:28:14.060Z,1017.39
2018-03-22T03:29:14.121Z,1017.34
2018-03-22T03:30:14.185Z,1017.35
2018-03-22T03:31:14.397Z,1017.33
2018-03-22T03:32:14.300Z,1017.33
2018-03-22T03:33:14.357Z,1017.31
2018-03-22T03:34:14.416Z,1017.31
2018-03-22T03:35:14.476Z,1017.29
2018-03-22T03:36:14.544Z,1017.31
2018-03-22T03:37:14.600Z,1017.29
2018-03-22T03:38:14.657Z,1017.29
2018-03-22T03:39:14.716Z,1017.28
2018-03-22T03:40:14.781Z,1017.31
2018-03-22T03:41:14.857Z,1017.21
2018-03-22T03:42:14.909Z,1017.19
2018-03-22T03:43:14.953Z,1017.22
2018-03-22T03:44:15.017Z,1017.18
2018-03-22T03:45:15.077Z,1017.10
2018-03-22T03:46:15.149Z,1017.09
2018-03-22T03:47:15.189Z,1017.06
2018-03-22T03:48:15.298Z,1017.03
2018-03-22T03:49:15.310Z,1017.02
2018-03-22T03:50:15.369Z,1016.96
2018-03-22T03:51:15.433Z,1016.98
2018-03-22T03:52:15.497Z,1016.94
2018-03-22T03:53:15.547Z,1016.91
2018-03-22T03:54:15.617Z,1016.94
2018-03-22T03:55:15.682Z,1016.86
2018-03-22T03:56:15.737Z,1016.80
2018-03-22T03:57:15.793Z,1016.79
2018-03-22T03:58:15.849Z,1016.84
2018-03-22T03:59:15.909Z,1016.85
2018-03-22T04:00:15.965Z,1016.83
2018-03-22T04:01:16.041Z,1016.80
2018-03-22T04:02:16.093Z,1016.76
2018-03-22T04:03:16.142Z,1016.74
2018-03-22T04:04:16.210Z,1016.74
2018-03-22T04:05:16.262Z,1016.75
2018-03-22T04:06:16.338Z,1016.74
2018-03-22T04:07:16.386Z,1016.78
2018-03-22T04:08:16.450Z,1016.73
2018-03-22T04:09:16.510Z,1016.79
2018-03-22T04:10:16.562Z,1016.77
2018-03-22T04:11:16.638Z,1016.76
2018-03-22T04:12:16.681Z,1016.79
2018-03-22T04:13:16.738Z,1016.78
2018-03-22T04:14:16.794Z,1016.79
2018-03-22T04:15:16.854Z,1016.72
2018-03-22T04:16:16.928Z,1016.72
2018-03-22T04:17:16.986Z,1016.76
2018-03-22T04:18:17.034Z,1016.73
2018-03-22T04:19:17.090Z,1016.71
2018-03-22T04:20:17.154Z,1016.73
2018-03-22T04:21:17.386Z,1016.61
2018-03-22T04:22:17.286Z,1016.65
2018-03-22T04:23:17.358Z,1016.67
2018-03-22T04:24:17.390Z,1016.65
2018-03-22T04:25:17.470Z,1016.65
2018-03-22T04:26:17.523Z,1016.63
2018-03-22T04:27:17.579Z,1016.59
2018-03-22T04:28:17.626Z,1016.59
2018-03-22T04:29:17.718Z,1016.58
2018-03-22T04:30:17.747Z,1016.52
2018-03-22T04:31:17.834Z,1016.59
2018-03-22T04:32:17.902Z,1016.53
2018-03-22T04:33:17.935Z,1016.53
2018-03-22T04:34:17.987Z,1016.54
2018-03-22T04:35:18.053Z,1016.47
2018-03-22T04:36:18.226Z,1016.45
2018-03-22T04:37:18.174Z,1016.41
2018-03-22T04:38:18.223Z,1016.33
2018-03-22T04:39:18.314Z,1016.32
2018-03-22T04:40:18.347Z,1016.31
2018-03-22T04:41:18.408Z,1016.35
2018-03-22T04:42:18.487Z,1016.26
2018-03-22T04:43:18.551Z,1016.24
2018-03-22T04:44:18.595Z,1016.21
2018-03-22T04:45:18.655Z,1016.24
2018-03-22T04:46:18.731Z,1016.24
2018-03-22T04:47:18.771Z,1016.22
2018-03-22T04:48:18.835Z,1016.19
2018-03-22T04:49:18.921Z,1016.13
2018-03-22T04:50:18.939Z,1016.23
2018-03-22T04:51:19.007Z,1016.20
2018-03-22T04:52:19.078Z,1016.22
2018-03-22T04:53:19.116Z,1016.16
2018-03-22T04:54:19.179Z,1016.12
2018-03-22T04:55:19.244Z,1016.15
2018-03-22T04:56:19.300Z,1016.04
2018-03-22T04:57:19.587Z,1016.03
2018-03-22T04:58:19.423Z,1016.02
2018-03-22T04:59:19.520Z,1016.04
2018-03-22T05:00:19.548Z,1016.05
2018-03-22T05:01:19.588Z,1016.07
2018-03-22T05:02:19.664Z,1016.00
2018-03-22T05:03:19.716Z,1015.97
2018-03-22T05:04:19.768Z,1015.97
2018-03-22T05:05:19.828Z,1015.97
2018-03-22T05:06:19.897Z,1015.98
2018-03-22T05:07:19.956Z,1015.93
2018-03-22T05:08:20.016Z,1015.92
2018-03-22T05:09:20.060Z,1015.96
2018-03-22T05:10:20.132Z,1015.93
2018-03-22T05:11:20.197Z,1015.89
2018-03-22T05:12:20.248Z,1015.90
2018-03-22T05:13:20.471Z,1015.93
2018-03-22T05:14:20.368Z,1015.93
2018-03-22T05:15:20.421Z,1015.93
2018-03-22T05:16:20.480Z,1015.94
2018-03-22T05:17:20.548Z,1015.99
2018-03-22T05:18:20.608Z,1015.95
2018-03-22T05:19:20.672Z,1015.95
2018-03-22T05:20:20.721Z,1015.96
2018-03-22T05:21:20.779Z,1015.95
2018-03-22T05:22:20.856Z,1015.94
2018-03-22T05:23:20.944Z,1015.88
2018-03-22T05:24:20.973Z,1015.87
2018-03-22T05:25:21.021Z,1015.82
2018-03-22T05:26:21.076Z,1015.78
2018-03-22T05:27:21.141Z,1015.77
2018-03-22T05:28:21.369Z,1015.75
2018-03-22T05:29:21.258Z,1015.66
2018-03-22T05:30:21.320Z,1015.71
2018-03-22T05:31:21.403Z,1015.69
2018-03-22T05:32:21.436Z,1015.70
2018-03-22T05:33:21.545Z,1015.74
2018-03-22T05:34:21.597Z,1015.68
2018-03-22T05:35:21.684Z,1015.63
2018-03-22T05:36:21.717Z,1015.57
2018-03-22T05:37:21.737Z,1015.56
2018-03-22T05:38:21.806Z,1015.52
2018-03-22T05:39:21.858Z,1015.56
2018-03-22T05:40:21.958Z,1015.52
2018-03-22T05:41:22.029Z,1015.51
2018-03-22T05:42:22.057Z,1015.52
2018-03-22T05:43:22.153Z,1015.45
2018-03-22T05:44:22.157Z,1015.45
2018-03-22T05:45:22.210Z,1015.45
2018-03-22T05:46:22.310Z,1015.47
2018-03-22T05:47:22.326Z,1015.37
2018-03-22T05:48:22.402Z,1015.40
2018-03-22T05:49:22.450Z,1015.42
2018-03-22T05:50:22.502Z,1015.41
2018-03-22T05:51:22.565Z,1015.32
2018-03-22T05:52:22.684Z,1015.39
2018-03-22T05:53:22.694Z,1015.35
2018-03-22T05:54:22.750Z,1015.33
2018-03-22T05:55:22.810Z,1015.35
2018-03-22T05:56:22.866Z,1015.32
2018-03-22T05:57:22.921Z,1015.29
2018-03-22T05:58:22.994Z,1015.27
2018-03-22T05:59:23.050Z,1015.38
2018-03-22T06:00:23.102Z,1015.38
2018-03-22T06:01:23.416Z,1015.36
2018-03-22T06:02:23.428Z,1015.35
2018-03-22T06:03:23.270Z,1015.36
2018-03-22T06:04:23.857Z,1015.38
2018-03-22T06:05:23.458Z,1015.38
2018-03-22T06:06:24.198Z,1015.37
2018-03-22T06:07:25.210Z,1015.43
2018-03-22T06:08:23.586Z,1015.46
2018-03-22T06:09:23.782Z,1015.43
2018-03-22T06:10:23.898Z,1015.44
2018-03-22T06:11:23.782Z,1015.41
2018-03-22T06:12:23.864Z,1015.40
2018-03-22T06:13:23.890Z,1015.55
2018-03-22T06:14:23.974Z,1015.57
2018-03-22T06:15:24.323Z,1015.45
2018-03-22T06:16:24.094Z,1015.51
2018-03-22T06:17:24.252Z,1015.53
2018-03-22T06:18:24.265Z,1015.50
2018-03-22T06:19:24.275Z,1015.50
2018-03-22T06:20:24.322Z,1015.49
2018-03-22T06:21:24.635Z,1015.44
2018-03-22T06:22:24.499Z,1015.38
2018-03-22T06:23:24.535Z,1015.38
2018-03-22T06:24:24.571Z,1015.38
2018-03-22T06:25:24.654Z,1015.37
2018-03-22T06:26:24.638Z,1015.40
2018-03-22T06:27:24.780Z,1015.38
2018-03-22T06:28:24.839Z,1015.38
2018-03-22T06:29:24.839Z,1015.31
2018-03-22T06:30:24.887Z,1015.28
2018-03-22T06:31:24.963Z,1015.34
2018-03-22T06:32:25.119Z,1015.33
2018-03-22T06:33:25.079Z,1015.37
2018-03-22T06:34:25.138Z,1015.33
2018-03-22T06:35:25.183Z,1015.27
2018-03-22T06:36:25.240Z,1015.27
2018-03-22T06:37:25.359Z,1015.37
2018-03-22T06:38:25.352Z,1015.22
2018-03-22T06:39:25.416Z,1015.17
2018-03-22T06:40:25.480Z,1015.12
2018-03-22T06:41:25.535Z,1015.14
2018-03-22T06:42:25.647Z,1015.13
2018-03-22T06:43:25.715Z,1015.09
2018-03-22T06:44:25.728Z,1015.09
2018-03-22T06:45:25.776Z,1015.07
2018-03-22T06:46:25.813Z,1015.05
2018-03-22T06:47:25.893Z,1015.05
2018-03-22T06:48:25.943Z,1015.06
2018-03-22T06:49:26.004Z,1015.04
2018-03-22T06:50:26.206Z,1015.03
2018-03-22T06:51:26.104Z,1015.09
2018-03-22T06:52:26.203Z,1015.04
2018-03-22T06:53:26.236Z,1015.06
2018-03-22T06:54:26.288Z,1015.03
2018-03-22T06:55:26.340Z,1015.07
2018-03-22T06:56:26.412Z,1015.03
2018-03-22T06:57:26.468Z,1015.07
2018-03-22T06:58:26.568Z,1015.07
2018-03-22T06:59:26.600Z,1014.97
2018-03-22T07:00:26.644Z,1015.06
2018-03-22T07:01:26.688Z,1014.96
2018-03-22T07:02:26.825Z,1014.92
2018-03-22T07:03:26.840Z,1014.98
2018-03-22T07:04:26.940Z,1015.01
2018-03-22T07:05:26.929Z,1014.85
2018-03-22T07:06:27.007Z,1014.77
2018-03-22T07:07:27.056Z,1014.81
2018-03-22T07:08:27.155Z,1014.74
2018-03-22T07:09:27.181Z,1014.71
2018-03-22T07:10:27.249Z,1014.72
2018-03-22T07:11:27.288Z,1014.65
2018-03-22T07:12:27.376Z,1014.68
2018-03-22T07:13:27.473Z,1014.65
2018-03-22T07:14:27.461Z,1014.66
2018-03-22T07:15:27.549Z,1014.65
2018-03-22T07:16:27.589Z,1014.66
2018-03-22T07:17:27.669Z,1014.65
2018-03-22T07:18:27.720Z,1014.63
2018-03-22T07:19:27.864Z,1014.57
2018-03-22T07:20:27.809Z,1014.60
2018-03-22T07:21:27.909Z,1014.57
2018-03-22T07:22:28.001Z,1014.60
2018-03-22T07:23:28.013Z,1014.60
2018-03-22T07:24:28.061Z,1014.57
2018-03-22T07:25:28.129Z,1014.49
2018-03-22T07:26:28.173Z,1014.51
2018-03-22T07:27:28.325Z,1014.57
2018-03-22T07:28:28.278Z,1014.59
2018-03-22T07:29:28.353Z,1014.53
2018-03-22T07:30:28.401Z,1014.47
2018-03-22T07:31:28.473Z,1014.52
2018-03-22T07:32:28.539Z,1014.50
2018-03-22T07:33:28.594Z,1014.48
2018-03-22T07:34:28.633Z,1014.53
2018-03-22T07:35:28.698Z,1014.48
2018-03-22T07:36:28.770Z,1014.49
2018-03-22T07:37:28.886Z,1014.43
2018-03-22T07:38:28.926Z,1014.47
2018-03-22T07:39:28.942Z,1014.47
2018-03-22T07:40:29.002Z,1014.48
2018-03-22T07:41:29.078Z,1014.41
2018-03-22T07:42:29.225Z,1014.38
2018-03-22T07:43:29.166Z,1014.42
2018-03-22T07:44:29.206Z,1014.44
2018-03-22T07:45:29.286Z,1014.42
2018-03-22T07:46:29.334Z,1014.43
2018-03-22T07:47:29.392Z,1014.36
2018-03-22T07:48:29.478Z,1014.36
2018-03-22T07:49:29.502Z,1014.37
2018-03-22T07:50:29.583Z,1014.36
2018-03-22T07:51:29.619Z,1014.35
2018-03-22T07:52:29.719Z,1014.38
2018-03-22T07:53:29.758Z,1014.29
2018-03-22T07:54:29.802Z,1014.33
2018-03-22T07:55:29.870Z,1014.27
2018-03-22T07:56:29.911Z,1014.26
2018-03-22T07:57:30.004Z,1014.29
2018-03-22T07:58:30.067Z,1014.25
2018-03-22T07:59:30.123Z,1014.25
2018-03-22T08:00:30.142Z,1014.35
2018-03-22T08:01:30.222Z,1014.29
2018-03-22T08:02:30.283Z,1014.27
2018-03-22T08:03:31.326Z,1014.32
2018-03-22T08:04:30.391Z,1014.27
2018-03-22T08:05:30.446Z,1014.25
2018-03-22T08:06:30.527Z,1014.26
2018-03-22T08:07:30.591Z,1014.29
2018-03-22T08:08:30.639Z,1014.23
2018-03-22T08:09:30.703Z,1014.27
2018-03-22T08:10:30.743Z,1014.23
2018-03-22T08:11:30.803Z,1014.26
2018-03-22T08:12:30.883Z,1014.24
2018-03-22T08:13:30.928Z,1014.28
2018-03-22T08:14:30.987Z,1014.23
2018-03-22T08:15:31.067Z,1014.25
2018-03-22T08:16:31.103Z,1014.18
2018-03-22T08:17:31.143Z,1014.19
2018-03-22T08:18:31.215Z,1014.23
2018-03-22T08:19:31.259Z,1014.22
2018-03-22T08:20:31.453Z,1014.19
2018-03-22T08:21:31.375Z,1014.15
2018-03-22T08:22:31.444Z,1014.11
2018-03-22T08:23:31.511Z,1014.13
2018-03-22T08:24:31.559Z,1014.12
2018-03-22T08:25:31.640Z,1014.11
2018-03-22T08:26:31.696Z,1014.14
2018-03-22T08:27:31.744Z,1014.14
2018-03-22T08:28:31.824Z,1014.10
2018-03-22T08:29:31.876Z,1014.11
2018-03-22T08:30:31.948Z,1014.10
2018-03-22T08:31:32.013Z,1014.03
2018-03-22T08:32:32.031Z,1014.04
2018-03-22T08:33:32.088Z,1014.06
2018-03-22T08:34:32.140Z,1014.05
2018-03-22T08:35:32.224Z,1014.04
2018-03-22T08:36:32.276Z,1014.02
2018-03-22T08:37:32.326Z,1014.03
2018-03-22T08:38:32.392Z,1013.99
2018-03-22T08:39:32.444Z,1013.91
2018-03-22T08:40:32.516Z,1013.94
2018-03-22T08:41:32.592Z,1013.84
2018-03-22T08:42:32.609Z,1013.89
2018-03-22T08:43:32.777Z,1013.86
2018-03-22T08:44:32.733Z,1013.82
2018-03-22T08:45:32.801Z,1013.74
2018-03-22T08:46:32.856Z,1013.73
2018-03-22T08:47:32.917Z,1013.72
2018-03-22T08:48:32.989Z,1013.72
2018-03-22T08:49:33.049Z,1013.71
2018-03-22T08:50:33.125Z,1013.74
2018-03-22T08:51:33.137Z,1013.68
2018-03-22T08:52:33.197Z,1013.65
2018-03-22T08:53:33.249Z,1013.60
2018-03-22T08:54:33.313Z,1013.60
2018-03-22T08:55:33.389Z,1013.61
2018-03-22T08:56:33.449Z,1013.56
2018-03-22T08:57:33.485Z,1013.57
2018-03-22T08:58:33.553Z,1013.53
2018-03-22T08:59:33.609Z,1013.49
2018-03-22T09:00:33.677Z,1013.51
2018-03-22T09:01:33.733Z,1013.50
2018-03-22T09:02:33.781Z,1013.50
2018-03-22T09:03:33.841Z,1013.49
2018-03-22T09:04:33.906Z,1013.47
2018-03-22T09:05:33.979Z,1013.47
2018-03-22T09:06:34.030Z,1013.51
2018-03-22T09:07:34.078Z,1013.43
2018-03-22T09:08:34.146Z,1013.40
2018-03-22T09:09:34.197Z,1013.38
2018-03-22T09:10:34.322Z,1013.39
2018-03-22T09:11:34.321Z,1013.38
2018-03-22T09:12:34.376Z,1013.34
2018-03-22T09:13:34.434Z,1013.31
2018-03-22T09:14:34.494Z,1013.40
2018-03-22T09:15:34.555Z,1013.35
2018-03-22T09:16:34.610Z,1013.30
2018-03-22T09:17:34.666Z,1013.39
2018-03-22T09:18:34.726Z,1013.29
2018-03-22T09:19:34.790Z,1013.36
2018-03-22T09:20:34.846Z,1013.34
2018-03-22T09:21:34.908Z,1013.32
2018-03-22T09:22:34.959Z,1013.30
2018-03-22T09:23:35.014Z,1013.24
2018-03-22T09:24:35.075Z,1013.26
2018-03-22T09:25:35.286Z,1013.23
2018-03-22T09:26:35.191Z,1013.22
2018-03-22T09:27:35.250Z,1013.20
2018-03-22T09:28:35.310Z,1013.27
2018-03-22T09:29:35.371Z,1013.24
2018-03-22T09:30:35.443Z,1013.20
2018-03-22T09:31:35.498Z,1013.24
2018-03-22T09:32:35.551Z,1013.24
2018-03-22T09:33:35.602Z,1013.20
2018-03-22T09:34:35.682Z,1013.21
2018-03-22T09:35:35.727Z,1013.16
2018-03-22T09:36:35.787Z,1013.17
2018-03-22T09:37:35.843Z,1013.17
2018-03-22T09:38:35.936Z,1013.22
2018-03-22T09:39:35.955Z,1013.21
2018-03-22T09:40:36.023Z,1013.22
2018-03-22T09:41:36.079Z,1013.24
2018-03-22T09:42:36.131Z,1013.21
2018-03-22T09:43:36.191Z,1013.21
2018-03-22T09:44:36.251Z,1013.23
2018-03-22T09:45:36.319Z,1013.25
2018-03-22T09:46:36.375Z,1013.32
2018-03-22T09:47:36.431Z,1013.26
2018-03-22T09:48:36.487Z,1013.33
2018-03-22T09:49:36.547Z,1013.35
2018-03-22T09:50:36.615Z,1013.29
2018-03-22T09:51:36.676Z,1013.32
2018-03-22T09:52:36.728Z,1013.32
2018-03-22T09:53:36.780Z,1013.39
2018-03-22T09:54:36.841Z,1013.37
2018-03-22T09:55:36.903Z,1013.32
2018-03-22T09:56:36.965Z,1013.22
2018-03-22T09:57:37.020Z,1013.19
2018-03-22T09:58:37.080Z,1013.18
2018-03-22T09:59:37.139Z,1013.13
2018-03-22T10:00:37.207Z,1013.16
2018-03-22T10:01:37.252Z,1013.14
2018-03-22T10:02:37.320Z,1013.14
2018-03-22T10:03:37.372Z,1013.14
2018-03-22T10:04:37.432Z,1013.14
2018-03-22T10:05:37.500Z,1013.17
2018-03-22T10:06:37.556Z,1013.18
2018-03-22T10:07:37.608Z,1013.07
2018-03-22T10:08:37.668Z,1013.18
2018-03-22T10:09:37.726Z,1013.19
2018-03-22T10:10:37.793Z,1013.14
2018-03-22T10:11:37.852Z,1013.12
2018-03-22T10:12:37.905Z,1013.12
2018-03-22T10:13:37.964Z,1013.17
2018-03-22T10:14:38.022Z,1013.14
2018-03-22T10:15:38.081Z,1013.11
2018-03-22T10:16:38.233Z,1013.08
2018-03-22T10:17:38.200Z,1013.08
2018-03-22T10:18:38.264Z,1013.08
2018-03-22T10:19:38.317Z,1013.01
2018-03-22T10:20:38.377Z,1012.99
2018-03-22T10:21:38.493Z,1012.99
2018-03-22T10:22:38.508Z,1012.98
2018-03-22T10:23:38.552Z,1012.94
2018-03-22T10:24:38.613Z,1012.97
2018-03-22T10:25:38.672Z,1013.01
2018-03-22T10:26:38.742Z,1012.93
2018-03-22T10:27:38.797Z,1012.98
2018-03-22T10:28:38.849Z,1012.98
2018-03-22T10:29:38.909Z,1012.95
2018-03-22T10:30:38.969Z,1012.90
2018-03-22T10:31:39.037Z,1012.93
2018-03-22T10:32:39.093Z,1012.90
2018-03-22T10:33:39.145Z,1012.86
2018-03-22T10:34:39.209Z,1012.82
2018-03-22T10:35:39.268Z,1012.87
2018-03-22T10:36:39.445Z,1012.84
2018-03-22T10:37:39.381Z,1012.79
2018-03-22T10:38:39.441Z,1012.79
2018-03-22T10:39:39.505Z,1012.75
2018-03-22T10:40:39.561Z,1012.81
2018-03-22T10:41:39.634Z,1012.82
2018-03-22T10:42:39.686Z,1012.83
2018-03-22T10:43:39.744Z,1012.87
2018-03-22T10:44:39.797Z,1012.87
2018-03-22T10:45:39.865Z,1012.86
2018-03-22T10:46:39.924Z,1012.85
2018-03-22T10:47:39.987Z,1012.79
2018-03-22T10:48:40.038Z,1012.77
2018-03-22T10:49:40.093Z,1012.80
2018-03-22T10:50:40.154Z,1012.78
2018-03-22T10:51:40.248Z,1012.74
2018-03-22T10:52:40.273Z,1012.71
2018-03-22T10:53:40.333Z,1012.69
2018-03-22T10:54:40.390Z,1012.76
2018-03-22T10:55:40.450Z,1012.69
2018-03-22T10:56:40.522Z,1012.68
2018-03-22T10:57:40.580Z,1012.66
2018-03-22T10:58:40.634Z,1012.71
2018-03-22T10:59:40.686Z,1012.68
2018-03-22T11:00:40.748Z,1012.71
2018-03-22T11:01:40.814Z,1012.56
2018-03-22T11:02:40.874Z,1012.57
2018-03-22T11:03:40.929Z,1012.59
2018-03-22T11:04:40.986Z,1012.53
2018-03-22T11:05:41.046Z,1012.51
2018-03-22T11:06:41.331Z,1012.48
2018-03-22T11:07:41.163Z,1012.50
2018-03-22T11:08:41.223Z,1012.46
2018-03-22T11:09:41.282Z,1012.41
2018-03-22T11:10:41.346Z,1012.44
2018-03-22T11:11:41.406Z,1012.39
2018-03-22T11:12:41.467Z,1012.39
2018-03-22T11:13:41.519Z,1012.48
2018-03-22T11:14:41.583Z,1012.32
2018-03-22T11:15:41.647Z,1012.37
2018-03-22T11:16:41.707Z,1012.27
2018-03-22T11:17:41.771Z,1012.26
2018-03-22T11:18:41.820Z,1012.29
2018-03-22T11:19:41.871Z,1012.24
2018-03-22T11:20:41.935Z,1012.23
2018-03-22T11:21:42.003Z,1012.20
2018-03-22T11:22:42.063Z,1012.18
2018-03-22T11:23:42.119Z,1012.19
2018-03-22T11:24:42.175Z,1012.26
2018-03-22T11:25:42.233Z,1012.17
2018-03-22T11:26:42.324Z,1012.23
2018-03-22T11:27:42.352Z,1012.21
2018-03-22T11:28:42.412Z,1012.24
2018-03-22T11:29:42.472Z,1012.16
2018-03-22T11:30:42.535Z,1012.13
2018-03-22T11:31:42.595Z,1012.12
2018-03-22T11:32:42.655Z,1012.13
2018-03-22T11:33:42.712Z,1012.09
2018-03-22T11:34:42.764Z,1012.05
2018-03-22T11:35:42.842Z,1012.07
2018-03-22T11:36:42.900Z,1012.06
2018-03-22T11:37:42.968Z,1012.09
2018-03-22T11:38:43.007Z,1012.05
2018-03-22T11:39:43.072Z,1012.03
2018-03-22T11:40:43.131Z,1011.99
2018-03-22T11:41:43.292Z,1011.99
2018-03-22T11:42:43.248Z,1011.98
2018-03-22T11:43:43.311Z,1011.96
2018-03-22T11:44:43.372Z,1011.98
2018-03-22T11:45:43.420Z,1011.97
2018-03-22T11:46:43.496Z,1011.89
2018-03-22T11:47:43.552Z,1011.94
2018-03-22T11:48:43.604Z,1011.96
2018-03-22T11:49:43.672Z,1011.95
2018-03-22T11:50:43.726Z,1011.88
2018-03-22T11:51:43.808Z,1011.91
2018-03-22T11:52:43.848Z,1011.93
2018-03-22T11:53:43.927Z,1011.89
2018-03-22T11:54:43.961Z,1011.90
2018-03-22T11:55:44.021Z,1011.89
2018-03-22T11:56:44.080Z,1011.85
2018-03-22T11:57:44.152Z,1011.87
2018-03-22T11:58:44.201Z,1011.80
2018-03-22T11:59:44.265Z,1011.82
2018-03-22T12:00:44.324Z,1011.78
2018-03-22T12:01:44.384Z,1011.77
2018-03-22T12:02:44.452Z,1011.80
2018-03-22T12:03:44.513Z,1011.84
2018-03-22T12:04:44.597Z,1011.83
2018-03-22T12:05:44.625Z,1011.85